Time;durP1;ratioP1;P1;durP2;ratioP2;P2;SDS_P1;SDS_P2;PMS_P1;PMS_P2;Temp;Humidity;BMP_temperature;BMP_pressure;BME280_temperature;BME280_humidity;BME280_pressure;Samples;Min_cycle;Max_cycle;Signal;HPM_P1;HPM_P2
2022/10/02 00:01:56;;;;;;;9.52;2.00;;;13.50;99.90;;;;;;6182127;23;20012;-75
2022/10/02 00:04:28;;;;;;;8.20;1.92;;;13.50;99.90;;;;;;6182269;23;20057;-74
2022/10/02 00:06:59;;;;;;;5.30;2.22;;;13.50;99.90;;;;;;6182060;23;20056;-75
2022/10/02 00:09:32;;;;;;;4.68;1.23;;;13.40;99.90;;;;;;6181932;23;20001;-75
2022/10/02 00:11:59;;;;;;;6.57;1.52;;;13.40;99.90;;;;;;6182147;23;20013;-75
2022/10/02 00:14:32;;;;;;;5.68;1.13;;;13.40;99.90;;;;;;6181586;23;20383;-75
2022/10/02 00:16:59;;;;;;;5.97;0.95;;;13.40;99.90;;;;;;6181981;23;20047;-74
2022/10/02 00:19:25;;;;;;;4.18;1.30;;;13.40;99.90;;;;;;6182079;23;20001;-75
2022/10/02 00:21:57;;;;;;;11.65;1.52;;;12.90;99.90;;;;;;6181942;23;20482;-74
2022/10/02 00:24:26;;;;;;;5.35;1.35;;;13.10;99.90;;;;;;6182197;23;20067;-74
2022/10/02 00:27:14;;;;;;;7.82;1.20;;;13.10;99.90;;;;;;6181868;23;20013;-74
2022/10/02 00:29:52;;;;;;;9.48;1.40;;;12.90;99.90;;;;;;6181278;23;20001;-74
2022/10/02 00:32:30;;;;;;;7.28;1.70;;;12.80;99.90;;;;;;6181813;23;20013;-74
2022/10/02 00:35:21;;;;;;;6.68;1.23;;;12.70;99.90;;;;;;6180239;23;20001;-74
2022/10/02 00:38:21;;;;;;;5.47;1.63;;;12.60;99.90;;;;;;6181919;23;20004;-75
2022/10/02 00:41:11;;;;;;;7.57;1.30;;;12.50;99.90;;;;;;6181908;23;19997;-74
2022/10/02 00:44:16;;;;;;;8.98;1.40;;;12.40;99.90;;;;;;6181762;23;20076;-74
2022/10/02 00:47:21;;;;;;;5.18;1.33;;;12.40;99.90;;;;;;6181900;23;20001;-75
2022/10/02 00:49:52;;;;;;;;;;;12.40;99.90;;;;;;6136448;23;20001;-74
2022/10/02 00:52:26;;;;;;;10.30;1.38;;;12.20;99.90;;;;;;6181808;23;20318;-74
2022/10/02 00:55:17;;;;;;;3.70;1.00;;;12.20;99.90;;;;;;6180578;23;19998;-75
2022/10/02 00:58:01;;;;;;;9.18;1.40;;;12.20;99.90;;;;;;6180164;23;20020;-74
2022/10/02 01:00:27;;;;;;;8.35;1.50;;;12.20;99.90;;;;;;6180892;23;20010;-74
2022/10/02 01:03:14;;;;;;;10.15;2.22;;;12.20;99.90;;;;;;6181333;23;20005;-74
2022/10/02 01:05:39;;;;;;;10.00;2.72;;;12.20;99.90;;;;;;6181737;23;20001;-74
2022/10/02 01:08:06;;;;;;;7.53;1.98;;;12.20;99.90;;;;;;6181519;23;20063;-75
2022/10/02 01:10:33;;;;;;;5.82;2.35;;;12.30;99.90;;;;;;6181636;23;20001;-74
2022/10/02 01:12:59;;;;;;;8.18;2.22;;;12.10;99.90;;;;;;6180987;23;20351;-74
2022/10/02 01:15:53;;;;;;;11.32;3.78;;;12.40;99.90;;;;;;6181427;23;20430;-75
2022/10/02 01:18:19;;;;;;;13.23;3.92;;;12.30;99.90;;;;;;6170121;23;20056;-74
2022/10/02 01:20:47;;;;;;;17.08;4.50;;;12.40;99.90;;;;;;6181267;23;20035;-74
2022/10/02 01:23:37;;;;;;;12.50;5.30;;;12.40;99.90;;;;;;6181428;23;20011;-75
2022/10/02 01:26:02;;;;;;;12.23;5.97;;;12.30;99.90;;;;;;6180804;23;20023;-75
2022/10/02 01:28:28;;;;;;;16.08;8.13;;;13.40;99.90;;;;;;6181679;23;20009;-74
2022/10/02 01:31:00;;;;;;;24.67;9.43;;;12.20;99.90;;;;;;6180944;23;20027;-75
2022/10/02 01:33:26;;;;;;;19.00;10.13;;;12.30;99.90;;;;;;6181648;23;20004;-74
2022/10/02 01:35:51;;;;;;;20.67;9.07;;;12.20;99.90;;;;;;6181502;23;20156;-75
2022/10/02 01:38:21;;;;;;;21.63;11.25;;;12.40;99.90;;;;;;6181232;23;20013;-74
2022/10/02 01:40:47;;;;;;;17.38;11.93;;;12.40;99.90;;;;;;6181024;23;20002;-75
2022/10/02 01:43:28;;;;;;;23.42;12.48;;;12.40;99.90;;;;;;6181182;23;20012;-75
2022/10/02 01:46:20;;;;;;;22.25;13.50;;;12.60;99.90;;;;;;6181401;23;20005;-74
2022/10/02 01:49:01;;;;;;;17.35;12.13;;;12.60;99.90;;;;;;6183499;23;20423;-75
2022/10/02 01:51:46;;;;;;;24.95;12.98;;;12.70;99.90;;;;;;6181941;23;20009;-75
2022/10/02 01:54:36;;;;;;;21.77;14.85;;;12.70;99.90;;;;;;6183437;23;20012;-75
2022/10/02 01:57:24;;;;;;;32.50;14.35;;;12.80;99.90;;;;;;6183058;23;20028;-75
2022/10/02 02:00:06;;;;;;;30.52;15.68;;;12.70;99.90;;;;;;6183903;23;19997;-75
2022/10/02 02:02:53;;;;;;;25.77;14.65;;;13.00;99.90;;;;;;6184034;23;20163;-75
2022/10/02 02:05:35;;;;;;;23.52;16.10;;;13.00;99.90;;;;;;6183919;23;20009;-75
2022/10/02 02:08:13;;;;;;;27.20;15.82;;;13.10;99.90;;;;;;6183702;23;20005;-75
2022/10/02 02:10:47;;;;;;;30.35;15.57;;;13.10;99.90;;;;;;6183201;23;20028;-75
2022/10/02 02:13:20;;;;;;;35.97;16.70;;;13.10;99.90;;;;;;6183702;23;20001;-74
2022/10/02 02:15:50;;;;;;;26.80;15.07;;;13.10;99.90;;;;;;6183776;23;19997;-75
2022/10/02 02:18:28;;;;;;;24.52;15.57;;;13.20;99.90;;;;;;6183614;23;20004;-75
2022/10/02 02:20:58;;;;;;;25.83;15.75;;;13.00;99.90;;;;;;6183668;23;20004;-74
2022/10/02 02:23:29;;;;;;;30.55;15.63;;;13.00;99.90;;;;;;6183958;23;20006;-75
2022/10/02 02:26:01;;;;;;;24.05;14.82;;;12.90;99.90;;;;;;6183019;23;19996;-75
2022/10/02 02:28:29;;;;;;;27.20;14.48;;;12.80;99.90;;;;;;6183747;23;20322;-74
2022/10/02 02:30:56;;;;;;;26.83;13.93;;;12.80;99.90;;;;;;6183317;23;20016;-74
2022/10/02 02:33:29;;;;;;;31.38;13.27;;;12.70;99.90;;;;;;6183556;23;20001;-74
2022/10/02 02:35:59;;;;;;;40.17;13.75;;;12.50;99.90;;;;;;6183683;23;20001;-74
2022/10/02 02:38:31;;;;;;;28.05;12.60;;;12.60;99.90;;;;;;6183036;23;20478;-75
2022/10/02 02:41:08;;;;;;;23.35;12.63;;;12.70;99.90;;;;;;6183500;23;20012;-75
2022/10/02 02:43:41;;;;;;;37.17;13.48;;;12.60;99.90;;;;;;6183852;23;20012;-75
2022/10/02 02:46:14;;;;;;;29.00;10.43;;;12.60;99.90;;;;;;6183705;23;20032;-74
2022/10/02 02:48:47;;;;;;;24.75;10.13;;;12.80;99.90;;;;;;6183616;23;20012;-75
2022/10/02 02:51:20;;;;;;;30.60;9.75;;;12.60;99.90;;;;;;6183686;23;20331;-74
2022/10/02 02:53:48;;;;;;;23.00;9.88;;;12.70;99.90;;;;;;6182983;23;20076;-74
2022/10/02 02:56:18;;;;;;;34.38;10.13;;;12.60;99.90;;;;;;6182652;23;20001;-74
2022/10/02 02:58:53;;;;;;;23.85;9.23;;;12.60;99.90;;;;;;6181271;23;20422;-74
2022/10/02 03:01:19;;;;;;;26.00;8.13;;;12.60;99.90;;;;;;6180410;23;20056;-74
2022/10/02 03:03:45;;;;;;;29.63;8.75;;;12.50;99.90;;;;;;6180918;23;20606;-74
2022/10/02 03:06:19;;;;;;;23.77;8.40;;;12.40;99.90;;;;;;6180919;23;20011;-74
2022/10/02 03:08:47;;;;;;;29.70;7.15;;;12.40;99.90;;;;;;6180283;23;20068;-74
2022/10/02 03:11:40;;;;;;;33.30;6.93;;;12.50;99.90;;;;;;6180637;23;20009;-74
2022/10/02 03:14:21;;;;;;;22.98;7.43;;;12.40;99.90;;;;;;6181354;23;20008;-74
2022/10/02 03:17:09;;;;;;;21.52;6.03;;;12.50;99.90;;;;;;6183396;23;20004;-74
2022/10/02 03:19:35;;;;;;;20.33;5.90;;;12.50;99.90;;;;;;6183497;23;20083;-74
2022/10/02 03:22:14;;;;;;;22.27;6.53;;;12.40;99.90;;;;;;6181551;23;20032;-74
2022/10/02 03:24:47;;;;;;;26.02;6.93;;;12.40;99.90;;;;;;6182906;23;20005;-74
2022/10/02 03:27:22;;;;;;;28.98;6.05;;;12.40;99.90;;;;;;6182193;23;19997;-74
2022/10/02 03:30:07;;;;;;;24.10;5.85;;;12.30;99.90;;;;;;6182240;23;20487;-74
2022/10/02 03:32:34;;;;;;;24.33;7.35;;;12.30;99.90;;;;;;6182761;23;20009;-74
2022/10/02 03:35:02;;;;;;;18.25;4.90;;;12.30;99.90;;;;;;6182362;23;20055;-74
2022/10/02 03:37:28;;;;;;;21.88;5.40;;;12.30;99.90;;;;;;6182239;23;19997;-74
2022/10/02 03:39:59;;;;;;;18.67;4.65;;;12.30;99.90;;;;;;6182227;23;20004;-74
2022/10/02 03:42:29;;;;;;;25.00;4.85;;;12.20;99.90;;;;;;6182404;23;20005;-74
2022/10/02 03:44:55;;;;;;;15.68;5.47;;;12.10;99.90;;;;;;6181753;23;20027;-74
2022/10/02 03:47:20;;;;;;;24.00;4.10;;;13.10;99.90;;;;;;6182631;23;20431;-74
2022/10/02 03:49:46;;;;;;;25.52;4.97;;;12.20;99.90;;;;;;6182892;23;20419;-74
2022/10/02 03:52:16;;;;;;;26.08;5.32;;;12.30;99.90;;;;;;6182070;23;20088;-74
2022/10/02 03:54:43;;;;;;;25.55;5.38;;;12.40;99.90;;;;;;6182749;23;20055;-74
2022/10/02 03:57:18;;;;;;;28.88;6.03;;;12.30;99.90;;;;;;6182648;23;20084;-74
2022/10/02 03:59:51;;;;;;;24.52;4.57;;;12.30;99.90;;;;;;6183093;23;20359;-74
2022/10/02 04:02:28;;;;;;;18.15;4.60;;;12.30;99.90;;;;;;6182840;23;20005;-74
2022/10/02 04:05:07;;;;;;;16.02;5.28;;;12.20;99.90;;;;;;6182615;23;20055;-74
2022/10/02 04:07:38;;;;;;;24.65;5.35;;;12.30;99.90;;;;;;6181990;23;20001;-74
2022/10/02 04:10:27;;;;;;;19.50;6.10;;;12.10;99.90;;;;;;6182523;23;20442;-74
2022/10/02 04:13:01;;;;;;;28.52;6.72;;;12.10;99.90;;;;;;6182494;23;20005;-75
2022/10/02 04:15:34;;;;;;;26.10;5.70;;;12.10;99.90;;;;;;6182735;23;20012;-74
2022/10/02 04:18:07;;;;;;;28.90;6.45;;;12.00;99.90;;;;;;6182648;23;20005;-74
2022/10/02 04:20:48;;;;;;;33.03;6.03;;;12.10;99.90;;;;;;6182295;23;20005;-74
2022/10/02 04:23:26;;;;;;;33.35;6.50;;;12.10;99.90;;;;;;6182592;23;19997;-74
2022/10/02 04:26:02;;;;;;;34.30;6.28;;;12.10;99.90;;;;;;6182502;23;20005;-74
2022/10/02 04:28:36;;;;;;;38.20;6.18;;;12.20;99.90;;;;;;6182725;23;20004;-73
2022/10/02 04:31:04;;;;;;;;;;;12.20;99.90;;;;;;6182767;23;20020;-74
2022/10/02 04:33:31;;;;;;;30.85;6.85;;;12.10;99.90;;;;;;6182831;23;19905;-74
2022/10/02 04:36:05;;;;;;;33.17;7.10;;;12.10;99.90;;;;;;6181880;23;20423;-73
2022/10/02 04:39:05;;;;;;;30.73;6.60;;;12.20;99.90;;;;;;6182627;23;20037;-74
2022/10/02 04:41:56;;;;;;;27.00;6.82;;;12.20;99.90;;;;;;6182398;23;20491;-73
2022/10/02 04:44:40;;;;;;;28.05;7.35;;;12.10;99.90;;;;;;6182133;23;20005;-74
2022/10/02 04:47:19;;;;;;;37.97;7.63;;;12.10;99.90;;;;;;6182455;23;20001;-74
2022/10/02 04:50:08;;;;;;;30.67;7.70;;;12.10;99.90;;;;;;6182182;23;20068;-74
2022/10/02 04:52:36;;;;;;;38.58;8.13;;;12.10;99.90;;;;;;6182396;23;20005;-74
2022/10/02 04:55:23;;;;;;;33.15;8.32;;;12.10;99.90;;;;;;6182237;23;20004;-74
2022/10/02 04:57:57;;;;;;;29.02;8.45;;;12.10;99.90;;;;;;6182281;23;20075;-74
2022/10/02 05:00:25;;;;;;;27.13;7.45;;;12.10;99.90;;;;;;6182119;23;20027;-74
2022/10/02 05:03:12;;;;;;;43.40;9.60;;;12.00;99.90;;;;;;6182469;23;20005;-73
2022/10/02 05:06:20;;;;;;;29.20;7.10;;;12.00;99.90;;;;;;6181879;23;20001;-74
2022/10/02 05:08:53;;;;;;;30.42;7.68;;;11.90;99.90;;;;;;6180591;23;20009;-74
2022/10/02 05:11:27;;;;;;;29.52;7.65;;;11.90;99.90;;;;;;6182051;23;20072;-74
2022/10/02 05:14:43;;;;;;;40.03;9.80;;;11.80;99.90;;;;;;6181801;23;20069;-74
2022/10/02 05:17:37;;;;;;;32.63;7.55;;;11.80;99.90;;;;;;6062094;23;20018;-74
2022/10/02 05:20:21;;;;;;;27.17;6.95;;;11.80;99.90;;;;;;6061399;23;20010;-74
2022/10/02 05:22:56;;;;;;;37.22;8.40;;;11.80;99.90;;;;;;6062122;23;20017;-75
2022/10/02 05:25:41;;;;;;;30.67;8.10;;;11.90;99.90;;;;;;6062064;23;20062;-74
2022/10/02 05:28:20;;;;;;;41.50;9.40;;;12.70;99.90;;;;;;6061935;23;20011;-74
2022/10/02 05:30:52;;;;;;;32.17;7.47;;;11.90;99.90;;;;;;6061999;23;20011;-74
2022/10/02 05:33:27;;;;;;;34.45;8.43;;;11.90;99.90;;;;;;6061609;23;20058;-74
2022/10/02 05:36:17;;;;;;;30.85;7.90;;;11.90;99.90;;;;;;6061967;23;20003;-74
2022/10/02 05:39:06;;;;;;;26.55;7.07;;;11.90;99.90;;;;;;6038143;23;20337;-74
2022/10/02 05:42:00;;;;;;;47.20;9.40;;;11.80;99.90;;;;;;6062077;23;20078;-75
2022/10/02 05:44:48;;;;;;;28.08;7.35;;;11.90;99.90;;;;;;6062233;23;20329;-74
2022/10/02 05:47:27;;;;;;;34.20;6.95;;;11.80;99.90;;;;;;6061153;23;20078;-74
2022/10/02 05:49:58;;;;;;;30.52;6.65;;;11.80;99.90;;;;;;6062088;23;20003;-74
2022/10/02 05:52:36;;;;;;;19.02;6.82;;;11.90;99.90;;;;;;6104214;23;20036;-74
2022/10/02 05:55:13;;;;;;;26.10;6.05;;;11.90;99.90;;;;;;6181720;23;20129;-74
2022/10/02 05:57:44;;;;;;;25.98;6.63;;;11.90;99.90;;;;;;6181954;23;20005;-74
2022/10/02 06:00:32;;;;;;;26.08;7.75;;;11.90;99.90;;;;;;6181816;23;20005;-74
2022/10/02 06:03:17;;;;;;;32.15;6.80;;;11.90;99.90;;;;;;6181188;23;20443;-74
2022/10/02 06:05:56;;;;;;;17.83;5.50;;;12.00;99.90;;;;;;6182028;23;20305;-76
2022/10/02 06:08:29;;;;;;;26.73;6.63;;;12.00;99.90;;;;;;6181851;23;20005;-74
2022/10/02 06:11:03;;;;;;;26.10;6.50;;;12.10;99.90;;;;;;6181763;23;20002;-75
2022/10/02 06:13:45;;;;;;;22.90;5.85;;;12.20;99.90;;;;;;6181962;23;20370;-74
2022/10/02 06:16:22;;;;;;;31.05;6.28;;;12.40;99.90;;;;;;6179777;23;20330;-74
2022/10/02 06:18:53;;;;;;;39.10;5.95;;;12.40;99.90;;;;;;6182177;23;20004;-74
2022/10/02 06:21:33;;;;;;;29.00;7.57;;;12.40;99.90;;;;;;6181904;23;20072;-74
2022/10/02 06:24:04;;;;;;;27.83;6.40;;;12.50;99.90;;;;;;6181577;23;20434;-74
2022/10/02 06:26:47;;;;;;;25.52;6.60;;;12.40;99.90;;;;;;6181834;23;20001;-75
2022/10/02 06:29:20;;;;;;;38.63;8.30;;;12.60;99.90;;;;;;6181575;23;20009;-74
2022/10/02 06:32:08;;;;;;;28.67;6.82;;;12.60;99.90;;;;;;6182218;23;20454;-74
2022/10/02 06:34:34;;;;;;;33.95;7.60;;;12.70;99.90;;;;;;6183651;23;20001;-74
2022/10/02 06:37:21;;;;;;;31.15;7.68;;;12.70;99.90;;;;;;6183577;23;20009;-75
2022/10/02 06:40:07;;;;;;;23.92;8.25;;;12.80;99.90;;;;;;6183587;23;20316;-74
2022/10/02 06:42:49;;;;;;;24.15;6.55;;;12.70;99.90;;;;;;6183675;23;20009;-74
2022/10/02 06:45:44;;;;;;;21.35;7.10;;;12.80;99.90;;;;;;6183024;23;20008;-74
2022/10/02 06:48:22;;;;;;;28.45;5.88;;;12.80;99.90;;;;;;6183487;23;20005;-75
2022/10/02 06:51:15;;;;;;;19.33;6.00;;;12.90;99.90;;;;;;6183583;23;20033;-74
2022/10/02 06:53:50;;;;;;;27.80;6.85;;;12.90;99.90;;;;;;6183212;23;20327;-74
2022/10/02 06:56:42;;;;;;;26.35;6.10;;;12.90;99.90;;;;;;6183319;23;20419;-75
2022/10/02 06:59:30;;;;;;;28.17;6.30;;;12.80;99.90;;;;;;6183356;23;19997;-74
2022/10/02 07:02:23;;;;;;;27.05;6.80;;;12.90;99.90;;;;;;6183203;23;20035;-74
2022/10/02 07:05:23;;;;;;;31.60;7.13;;;12.90;99.90;;;;;;6183731;23;20076;-75
2022/10/02 07:08:10;;;;;;;21.25;5.80;;;12.90;99.90;;;;;;6183190;23;20055;-74
2022/10/02 07:11:05;;;;;;;28.80;6.50;;;13.00;99.90;;;;;;6183684;23;20005;-74
2022/10/02 07:13:40;;;;;;;16.95;5.55;;;13.00;99.90;;;;;;6183492;23;20013;-74
2022/10/02 07:16:33;;;;;;;20.20;6.18;;;13.10;99.90;;;;;;6182771;23;20084;-75
2022/10/02 07:19:20;;;;;;;24.95;6.65;;;13.20;99.90;;;;;;6183354;23;20322;-74
2022/10/02 07:22:16;;;;;;;26.20;5.97;;;13.30;99.90;;;;;;6183629;23;19997;-74
2022/10/02 07:25:14;;;;;;;20.63;6.35;;;13.30;99.90;;;;;;6183209;23;20422;-74
2022/10/02 07:27:58;;;;;;;19.55;6.47;;;13.30;99.90;;;;;;6177281;23;20009;-74
2022/10/02 07:30:24;;;;;;;;;;;13.50;99.90;;;;;;6182620;23;20000;-74
2022/10/02 07:33:23;;;;;;;24.10;6.03;;;13.60;99.90;;;;;;6182938;23;19904;-74
2022/10/02 07:35:58;;;;;;;19.38;4.93;;;13.70;99.90;;;;;;6144433;23;20095;-74
2022/10/02 07:38:59;;;;;;;17.40;5.38;;;13.80;99.90;;;;;;6182965;23;20005;-74
2022/10/02 07:41:54;;;;;;;18.80;5.28;;;13.90;99.90;;;;;;6182936;23;20005;-75
2022/10/02 07:44:20;;;;;;;11.55;5.10;;;14.00;99.90;;;;;;6180865;23;20095;-74
2022/10/02 07:47:04;;;;;;;17.10;5.30;;;14.10;99.90;;;;;;6182909;23;20005;-74
2022/10/02 07:49:46;;;;;;;15.25;5.15;;;14.20;99.90;;;;;;6183039;23;20001;-74
2022/10/02 07:52:33;;;;;;;16.33;4.63;;;14.30;99.90;;;;;;6182764;23;20059;-72
2022/10/02 07:55:20;;;;;;;22.88;5.13;;;14.30;99.90;;;;;;6182544;23;20030;-73
2022/10/02 07:58:08;;;;;;;19.73;5.30;;;14.30;99.90;;;;;;6180550;23;20454;-73
2022/10/02 08:00:44;;;;;;;16.45;4.97;;;14.30;99.90;;;;;;6182846;23;20011;-72
2022/10/02 08:03:23;;;;;;;19.25;6.07;;;14.40;99.90;;;;;;6182884;23;20060;-72
2022/10/02 08:05:54;;;;;;;24.08;5.50;;;14.50;99.90;;;;;;6181233;23;20016;-72
2022/10/02 08:08:30;;;;;;;20.90;6.30;;;14.50;99.90;;;;;;6182675;23;20059;-72
2022/10/02 08:11:10;;;;;;;16.73;5.78;;;14.50;99.90;;;;;;6182512;23;20059;-72
2022/10/02 08:13:47;;;;;;;22.02;5.38;;;14.60;99.90;;;;;;6182260;23;20012;-72
2022/10/02 08:16:15;;;;;;;16.45;5.65;;;14.50;99.90;;;;;;6182401;23;20418;-72
2022/10/02 08:18:57;;;;;;;13.85;5.00;;;14.50;99.90;;;;;;6182574;23;20027;-72
2022/10/02 08:21:24;;;;;;;20.35;4.78;;;14.70;99.90;;;;;;6182566;23;20441;-72
2022/10/02 08:24:23;;;;;;;24.90;5.68;;;14.90;99.90;;;;;;6182479;23;20005;-73
2022/10/02 08:26:54;;;;;;;16.20;5.38;;;14.90;99.90;;;;;;6159719;23;20033;-73
2022/10/02 08:29:51;;;;;;;10.52;4.22;;;14.90;99.90;;;;;;6182389;23;20009;-73
2022/10/02 08:32:17;;;;;;;17.45;4.18;;;15.00;99.90;;;;;;6181967;23;20016;-73
2022/10/02 08:34:43;;;;;;;22.80;4.85;;;15.10;99.90;;;;;;6182329;23;19997;-72
2022/10/02 08:37:37;;;;;;;14.85;3.78;;;15.20;99.90;;;;;;6182417;23;20001;-73
2022/10/02 08:40:39;;;;;;;21.05;4.68;;;15.20;99.90;;;;;;6182173;23;20394;-73
2022/10/02 08:43:21;;;;;;;15.15;2.97;;;15.40;99.90;;;;;;6181550;23;20060;-73
2022/10/02 08:46:17;;;;;;;13.00;3.70;;;15.30;99.90;;;;;;6182277;23;20004;-73
2022/10/02 08:48:55;;;;;;;19.42;3.33;;;15.30;99.90;;;;;;6182283;23;20056;-73
2022/10/02 08:52:01;;;;;;;18.27;3.15;;;15.20;99.90;;;;;;6182116;23;20787;-73
2022/10/02 08:54:33;;;;;;;7.63;3.25;;;15.20;99.90;;;;;;6182215;23;20001;-72
2022/10/02 08:57:48;;;;;;;16.77;3.55;;;15.20;99.90;;;;;;6181609;23;20027;-72
2022/10/02 09:00:21;;;;;;;18.92;3.38;;;15.30;99.90;;;;;;6182305;23;19997;-73
2022/10/02 09:03:43;;;;;;;17.00;3.38;;;15.40;99.90;;;;;;6182239;23;20001;-72
2022/10/02 09:06:30;;;;;;;14.43;2.80;;;15.40;99.90;;;;;;6158598;23;20063;-72
2022/10/02 09:09:31;;;;;;;14.02;3.45;;;15.50;99.90;;;;;;6182272;23;20001;-73
2022/10/02 09:12:24;;;;;;;18.08;3.05;;;15.60;99.90;;;;;;6181440;23;20009;-72
2022/10/02 09:14:52;;;;;;;15.88;2.75;;;15.60;99.90;;;;;;6182458;23;20020;-72
2022/10/02 09:17:46;;;;;;;11.02;3.47;;;15.70;99.90;;;;;;6181912;23;20387;-73
2022/10/02 09:20:41;;;;;;;16.70;2.28;;;15.70;99.90;;;;;;6182076;23;20005;-72
2022/10/02 09:23:33;;;;;;;16.67;2.78;;;15.80;99.90;;;;;;6181945;23;20075;-75
2022/10/02 09:26:20;;;;;;;15.65;3.08;;;15.90;99.90;;;;;;6181231;23;20031;-72
2022/10/02 09:29:02;;;;;;;15.23;3.25;;;16.00;99.90;;;;;;6182094;23;20055;-72
2022/10/02 09:32:05;;;;;;;11.43;2.42;;;15.60;99.90;;;;;;6181809;23;20466;-72
2022/10/02 09:35:22;;;;;;;15.63;2.88;;;16.10;99.90;;;;;;6181853;23;20008;-72
2022/10/02 09:38:28;;;;;;;11.13;1.85;;;16.10;99.90;;;;;;6131548;23;20136;-72
2022/10/02 09:41:27;;;;;;;14.00;3.00;;;16.10;99.90;;;;;;6181284;23;20685;-73
2022/10/02 09:44:05;;;;;;;14.32;2.72;;;16.20;99.90;;;;;;6181965;23;20065;-72
2022/10/02 09:47:04;;;;;;;19.48;2.80;;;16.20;99.90;;;;;;6181868;23;20379;-72
2022/10/02 09:50:01;;;;;;;17.70;3.70;;;16.20;99.90;;;;;;6182009;23;20374;-72
2022/10/02 09:52:48;;;;;;;14.75;2.17;;;16.30;99.90;;;;;;6182002;23;20005;-72
2022/10/02 09:55:22;;;;;;;17.23;2.60;;;16.30;99.90;;;;;;6181394;23;20008;-72
2022/10/02 09:58:05;;;;;;;17.60;2.15;;;16.40;99.90;;;;;;6181907;23;19997;-72
2022/10/02 10:01:01;;;;;;;14.50;2.58;;;16.40;99.90;;;;;;6181910;23;20007;-72
2022/10/02 10:03:53;;;;;;;9.23;2.78;;;16.50;99.90;;;;;;6181860;23;20505;-72
2022/10/02 10:06:43;;;;;;;14.55;2.50;;;16.60;99.90;;;;;;6182961;23;20336;-72
2022/10/02 10:09:33;;;;;;;10.38;2.60;;;16.70;99.90;;;;;;6183246;23;20423;-72
2022/10/02 10:12:29;;;;;;;11.20;2.17;;;16.90;99.90;;;;;;6183389;23;20044;-72
2022/10/02 10:15:28;;;;;;;12.30;1.98;;;17.00;99.90;;;;;;6183818;23;20323;-73
2022/10/02 10:18:09;;;;;;;9.60;2.20;;;17.20;99.90;;;;;;6183647;23;20004;-72
2022/10/02 10:20:50;;;;;;;8.07;2.17;;;17.30;99.90;;;;;;6183936;23;20001;-72
2022/10/02 10:24:01;;;;;;;14.32;2.58;;;17.10;99.90;;;;;;6182928;23;20462;-72
2022/10/02 10:26:46;;;;;;;16.92;2.70;;;16.90;99.90;;;;;;6177846;23;20012;-73
2022/10/02 10:29:38;;;;;;;11.60;1.83;;;17.10;99.90;;;;;;6183318;23;20071;-73
2022/10/02 10:32:15;;;;;;;9.98;1.85;;;17.10;99.90;;;;;;6183242;23;20017;-72
2022/10/02 10:35:04;;;;;;;14.48;2.13;;;17.10;99.90;;;;;;6183520;23;19997;-73
2022/10/02 10:41:03;;;;;;;10.05;1.50;;;18.20;99.90;;;;;;6183698;23;20012;-72
2022/10/02 10:43:56;;;;;;;7.97;1.90;;;17.10;99.90;;;;;;6183589;23;19997;-73
2022/10/02 10:47:03;;;;;;;9.32;2.58;;;17.10;99.90;;;;;;6183211;23;20025;-72
2022/10/02 10:49:59;;;;;;;9.70;1.58;;;17.10;99.90;;;;;;6166570;23;20087;-72
2022/10/02 10:52:45;;;;;;;8.18;1.80;;;17.10;99.90;;;;;;6182220;23;20435;-72
2022/10/02 10:55:20;;;;;;;8.35;1.88;;;17.00;99.90;;;;;;6182034;23;20419;-72
2022/10/02 10:58:01;;;;;;;10.13;1.48;;;16.90;99.90;;;;;;6182625;23;20501;-73
2022/10/02 11:00:35;;;;;;;14.10;2.40;;;17.00;99.90;;;;;;6182038;23;19997;-73
2022/10/02 11:03:07;;;;;;;9.50;1.95;;;17.00;99.90;;;;;;6182379;23;20678;-73
2022/10/02 11:06:13;;;;;;;12.13;2.63;;;17.10;99.90;;;;;;6183229;23;20004;-72
2022/10/02 11:09:16;;;;;;;12.75;2.35;;;17.10;99.90;;;;;;6167011;23;20038;-73
2022/10/02 11:12:00;;;;;;;7.43;1.40;;;17.10;99.90;;;;;;6182877;23;20005;-72
2022/10/02 11:14:53;;;;;;;7.68;1.23;;;16.30;99.90;;;;;;6183079;23;20319;-72
2022/10/02 11:17:38;;;;;;;13.27;1.45;;;17.20;99.90;;;;;;6181240;23;20374;-73
2022/10/02 11:20:28;;;;;;;6.35;1.42;;;17.20;99.90;;;;;;6182867;23;20079;-73
2022/10/02 11:23:17;;;;;;;8.60;1.80;;;17.20;99.90;;;;;;6182369;23;20005;-72
2022/10/02 11:26:04;;;;;;;7.95;1.23;;;17.20;99.90;;;;;;6182391;23;20005;-72
2022/10/02 11:28:29;;;;;;;10.10;1.50;;;17.40;99.90;;;;;;6182449;23;20013;-73
2022/10/02 11:31:20;;;;;;;6.88;1.83;;;17.50;99.90;;;;;;6181989;23;20017;-72
2022/10/02 11:34:41;;;;;;;8.43;1.98;;;17.50;99.90;;;;;;6182677;23;20008;-73
2022/10/02 11:37:36;;;;;;;5.97;1.60;;;17.50;99.90;;;;;;6061816;23;20013;-72
2022/10/02 11:40:29;;;;;;;9.48;1.55;;;17.40;99.90;;;;;;6038216;23;20497;-72
2022/10/02 11:43:26;;;;;;;9.77;1.88;;;17.40;99.90;;;;;;6062315;23;20011;-72
2022/10/02 11:46:16;;;;;;;8.35;1.25;;;17.40;99.90;;;;;;6038118;23;20440;-73
2022/10/02 11:49:04;;;;;;;7.68;1.92;;;17.40;99.90;;;;;;6063009;23;20007;-73
2022/10/02 11:51:45;;;;;;;7.32;1.50;;;17.30;99.90;;;;;;6062489;23;20010;-72
2022/10/02 11:54:19;;;;;;;7.90;1.60;;;17.30;99.90;;;;;;6062689;23;20006;-72
2022/10/02 11:56:59;;;;;;;9.35;2.17;;;17.40;99.90;;;;;;6062314;23;20003;-73
2022/10/02 11:59:56;;;;;;;9.98;2.33;;;17.30;99.90;;;;;;6062731;23;20003;-73
2022/10/02 12:02:31;;;;;;;6.07;1.23;;;17.50;99.90;;;;;;6062725;23;20007;-73
2022/10/02 12:05:15;;;;;;;6.95;1.92;;;17.70;99.90;;;;;;6061913;23;20472;-72
2022/10/02 12:08:03;;;;;;;11.43;2.10;;;17.80;99.90;;;;;;6062407;23;20007;-73
2022/10/02 12:10:41;;;;;;;12.13;1.95;;;17.80;99.90;;;;;;6062701;23;20011;-72
2022/10/02 12:13:35;;;;;;;9.82;2.72;;;19.50;99.90;;;;;;6160870;23;20016;-73
2022/10/02 12:16:28;;;;;;;10.30;1.90;;;17.70;99.90;;;;;;6182024;23;20078;-72
2022/10/02 12:19:01;;;;;;;9.05;1.75;;;17.60;99.90;;;;;;6169403;23;20001;-72
2022/10/02 12:27:53;;;;;;;7.93;1.75;;;17.20;99.90;;;;;;6182402;23;20081;-73
2022/10/02 12:30:22;;;;;;;10.85;1.85;;;17.10;99.90;;;;;;6182228;23;20008;-73
2022/10/02 12:33:07;;;;;;;8.57;1.20;;;17.10;99.90;;;;;;6182524;23;20001;-73
2022/10/02 12:35:38;;;;;;;8.38;1.48;;;17.10;99.90;;;;;;6182170;23;20004;-73
2022/10/02 12:38:34;;;;;;;7.88;1.63;;;17.10;99.90;;;;;;6182407;23;20323;-72
2022/10/02 12:41:16;;;;;;;6.80;1.35;;;17.10;99.90;;;;;;6182469;23;20013;-73
2022/10/02 12:43:52;;;;;;;9.52;1.75;;;17.20;99.90;;;;;;6182323;23;20001;-73
2022/10/02 12:46:32;;;;;;;4.20;1.73;;;17.20;99.90;;;;;;6182352;23;19997;-73
2022/10/02 12:49:12;;;;;;;5.43;1.60;;;17.30;99.90;;;;;;6181640;23;20080;-73
2022/10/02 12:52:27;;;;;;;11.52;1.77;;;17.40;99.90;;;;;;6182185;23;20423;-73
2022/10/02 12:54:53;;;;;;;6.82;1.30;;;17.20;99.90;;;;;;6181936;23;20076;-73
2022/10/02 13:00:45;;;;;;;9.77;1.48;;;17.20;99.90;;;;;;6181997;23;20016;-73
2022/10/02 13:03:23;;;;;;;8.15;1.60;;;17.20;99.90;;;;;;6155413;23;20025;-73
2022/10/02 13:06:05;;;;;;;5.88;0.80;;;17.10;99.90;;;;;;6182176;23;20304;-73
2022/10/02 13:08:59;;;;;;;7.22;1.40;;;17.20;99.90;;;;;;6181059;23;20005;-73
2022/10/02 13:11:34;;;;;;;8.15;1.85;;;17.20;99.90;;;;;;6182026;23;20036;-73
2022/10/02 13:14:38;;;;;;;11.43;1.75;;;17.10;99.90;;;;;;6181611;23;20005;-73
2022/10/02 13:17:25;;;;;;;11.10;1.45;;;17.10;99.90;;;;;;6180677;23;20072;-73
2022/10/02 13:20:02;;;;;;;8.48;1.70;;;17.00;99.90;;;;;;6181737;23;20083;-73
2022/10/02 13:22:37;;;;;;;7.78;1.63;;;16.90;99.90;;;;;;6181976;23;20049;-73
2022/10/02 13:25:31;;;;;;;8.07;1.27;;;17.00;99.90;;;;;;6181854;23;20016;-72
2022/10/02 13:28:03;;;;;;;10.50;1.52;;;17.10;99.90;;;;;;6181551;23;20033;-73
2022/10/02 13:30:38;;;;;;;13.98;1.77;;;17.00;99.90;;;;;;6182090;23;20013;-72
2022/10/02 13:33:18;;;;;;;7.68;1.30;;;17.20;99.90;;;;;;6179619;23;20009;-73
2022/10/02 13:35:49;;;;;;;8.75;1.67;;;17.20;99.90;;;;;;6181525;23;20097;-73
2022/10/02 13:38:41;;;;;;;11.88;1.85;;;17.20;99.90;;;;;;6181064;23;20001;-72
2022/10/02 13:41:26;;;;;;;6.72;1.33;;;17.40;99.90;;;;;;6125556;23;20009;-73
2022/10/02 13:44:06;;;;;;;5.70;1.33;;;17.60;99.90;;;;;;6181886;23;20001;-73
2022/10/02 13:46:50;;;;;;;4.18;1.08;;;17.80;99.70;;;;;;6181379;23;20031;-73
2022/10/02 13:49:38;;;;;;;5.53;1.25;;;18.00;99.10;;;;;;6181794;23;20005;-72
2022/10/02 13:52:40;;;;;;;9.35;1.27;;;18.10;99.30;;;;;;6178695;23;20183;-72
2022/10/02 13:55:14;;;;;;;7.10;1.58;;;18.00;98.60;;;;;;6180929;23;20005;-72
2022/10/02 13:57:50;;;;;;;7.90;1.30;;;17.90;99.30;;;;;;6181472;23;20001;-72
2022/10/02 14:00:37;;;;;;;8.80;1.25;;;17.90;99.10;;;;;;6180921;23;20442;-73
2022/10/02 14:03:24;;;;;;;8.18;1.50;;;17.60;98.70;;;;;;6180968;23;20312;-73
2022/10/02 14:06:20;;;;;;;12.27;1.27;;;17.50;99.00;;;;;;6181135;23;20011;-72
2022/10/02 14:09:11;;;;;;;5.03;1.58;;;17.50;99.40;;;;;;6180193;23;20009;-72